sensor_id;sensor_type;location;lat;lon;timestamp;P1;durP1;ratioP1;P2;durP2;ratioP2
33160;SDS011;19522;45.656;11.302;2023-03-20T00:00:30;36.75;;;26.85;;
33160;SDS011;19522;45.656;11.302;2023-03-20T00:03:01;35.60;;;27.27;;
33160;SDS011;19522;45.656;11.302;2023-03-20T00:05:27;33.38;;;26.90;;
33160;SDS011;19522;45.656;11.302;2023-03-20T00:07:54;38.33;;;27.75;;
33160;SDS011;19522;45.656;11.302;2023-03-20T00:10:24;37.42;;;27.75;;
33160;SDS011;19522;45.656;11.302;2023-03-20T00:12:54;37.33;;;27.88;;
33160;SDS011;19522;45.656;11.302;2023-03-20T00:15:23;36.42;;;27.65;;
33160;SDS011;19522;45.656;11.302;2023-03-20T00:17:51;35.83;;;27.20;;
33160;SDS011;19522;45.656;11.302;2023-03-20T00:20:18;34.45;;;25.77;;
33160;SDS011;19522;45.656;11.302;2023-03-20T00:22:44;34.10;;;26.13;;
33160;SDS011;19522;45.656;11.302;2023-03-20T00:25:14;38.08;;;27.50;;
33160;SDS011;19522;45.656;11.302;2023-03-20T00:27:41;38.22;;;27.80;;
33160;SDS011;19522;45.656;11.302;2023-03-20T00:30:29;41.83;;;28.27;;
33160;SDS011;19522;45.656;11.302;2023-03-20T00:32:55;37.33;;;26.40;;
33160;SDS011;19522;45.656;11.302;2023-03-20T00:35:23;35.78;;;27.20;;
33160;SDS011;19522;45.656;11.302;2023-03-20T00:37:54;34.08;;;25.88;;
33160;SDS011;19522;45.656;11.302;2023-03-20T00:40:21;34.22;;;26.23;;
33160;SDS011;19522;45.656;11.302;2023-03-20T00:42:52;33.20;;;25.05;;
33160;SDS011;19522;45.656;11.302;2023-03-20T00:45:23;34.65;;;26.55;;
33160;SDS011;19522;45.656;11.302;2023-03-20T00:47:49;34.17;;;25.80;;
33160;SDS011;19522;45.656;11.302;2023-03-20T00:50:23;35.15;;;26.00;;
33160;SDS011;19522;45.656;11.302;2023-03-20T00:52:50;37.10;;;26.25;;
33160;SDS011;19522;45.656;11.302;2023-03-20T00:55:17;43.55;;;30.77;;
33160;SDS011;19522;45.656;11.302;2023-03-20T00:57:54;38.47;;;27.65;;
33160;SDS011;19522;45.656;11.302;2023-03-20T01:05:23;38.15;;;27.20;;
33160;SDS011;19522;45.656;11.302;2023-03-20T01:07:50;38.10;;;26.08;;
33160;SDS011;19522;45.656;11.302;2023-03-20T01:10:16;37.05;;;27.08;;
33160;SDS011;19522;45.656;11.302;2023-03-20T01:12:42;34.92;;;25.48;;
33160;SDS011;19522;45.656;11.302;2023-03-20T01:15:21;36.30;;;27.38;;
33160;SDS011;19522;45.656;11.302;2023-03-20T01:17:49;34.47;;;25.85;;
33160;SDS011;19522;45.656;11.302;2023-03-20T01:20:24;38.28;;;28.48;;
33160;SDS011;19522;45.656;11.302;2023-03-20T01:22:52;37.10;;;27.30;;
33160;SDS011;19522;45.656;11.302;2023-03-20T01:25:18;39.40;;;28.38;;
33160;SDS011;19522;45.656;11.302;2023-03-20T01:27:46;33.92;;;26.27;;
33160;SDS011;19522;45.656;11.302;2023-03-20T01:30:17;36.17;;;28.15;;
33160;SDS011;19522;45.656;11.302;2023-03-20T01:32:45;38.85;;;28.15;;
33160;SDS011;19522;45.656;11.302;2023-03-20T01:35:12;40.53;;;29.48;;
33160;SDS011;19522;45.656;11.302;2023-03-20T01:37:42;41.63;;;29.17;;
33160;SDS011;19522;45.656;11.302;2023-03-20T01:40:15;41.20;;;31.35;;
33160;SDS011;19522;45.656;11.302;2023-03-20T01:42:59;41.15;;;31.60;;
33160;SDS011;19522;45.656;11.302;2023-03-20T01:45:29;46.28;;;31.33;;
33160;SDS011;19522;45.656;11.302;2023-03-20T01:48:00;40.90;;;30.75;;
33160;SDS011;19522;45.656;11.302;2023-03-20T01:50:36;40.75;;;29.38;;
33160;SDS011;19522;45.656;11.302;2023-03-20T01:55:42;41.42;;;29.38;;
33160;SDS011;19522;45.656;11.302;2023-03-20T01:58:15;42.83;;;29.77;;
33160;SDS011;19522;45.656;11.302;2023-03-20T02:00:45;39.97;;;29.80;;
33160;SDS011;19522;45.656;11.302;2023-03-20T02:03:13;43.58;;;31.63;;
33160;SDS011;19522;45.656;11.302;2023-03-20T02:05:41;43.33;;;30.27;;
33160;SDS011;19522;45.656;11.302;2023-03-20T02:13:09;38.53;;;29.20;;
33160;SDS011;19522;45.656;11.302;2023-03-20T02:15:35;40.40;;;30.00;;
33160;SDS011;19522;45.656;11.302;2023-03-20T02:18:00;44.95;;;32.72;;
33160;SDS011;19522;45.656;11.302;2023-03-20T02:20:36;42.95;;;30.50;;
33160;SDS011;19522;45.656;11.302;2023-03-20T02:23:32;43.65;;;30.98;;
33160;SDS011;19522;45.656;11.302;2023-03-20T02:26:24;42.20;;;30.10;;
33160;SDS011;19522;45.656;11.302;2023-03-20T02:40:20;41.72;;;30.75;;
33160;SDS011;19522;45.656;11.302;2023-03-20T02:43:10;43.97;;;32.25;;
33160;SDS011;19522;45.656;11.302;2023-03-20T02:49:02;42.53;;;30.92;;
33160;SDS011;19522;45.656;11.302;2023-03-20T02:54:05;43.08;;;30.33;;
33160;SDS011;19522;45.656;11.302;2023-03-20T02:57:06;43.85;;;31.63;;
33160;SDS011;19522;45.656;11.302;2023-03-20T02:59:40;40.58;;;29.55;;
33160;SDS011;19522;45.656;11.302;2023-03-20T03:02:17;43.13;;;31.98;;
33160;SDS011;19522;45.656;11.302;2023-03-20T03:05:15;43.47;;;29.27;;
33160;SDS011;19522;45.656;11.302;2023-03-20T03:07:47;39.38;;;28.83;;
33160;SDS011;19522;45.656;11.302;2023-03-20T03:10:18;40.35;;;28.88;;
33160;SDS011;19522;45.656;11.302;2023-03-20T03:12:48;38.70;;;27.63;;
33160;SDS011;19522;45.656;11.302;2023-03-20T03:15:18;36.63;;;28.25;;
33160;SDS011;19522;45.656;11.302;2023-03-20T03:18:06;40.55;;;29.75;;
33160;SDS011;19522;45.656;11.302;2023-03-20T03:20:38;40.45;;;29.25;;
33160;SDS011;19522;45.656;11.302;2023-03-20T03:23:04;41.65;;;29.00;;
33160;SDS011;19522;45.656;11.302;2023-03-20T03:25:35;39.10;;;29.02;;
33160;SDS011;19522;45.656;11.302;2023-03-20T03:28:06;38.10;;;28.73;;
33160;SDS011;19522;45.656;11.302;2023-03-20T03:30:40;41.83;;;28.08;;
33160;SDS011;19522;45.656;11.302;2023-03-20T03:35:36;38.20;;;27.17;;
33160;SDS011;19522;45.656;11.302;2023-03-20T03:40:43;38.63;;;27.13;;
33160;SDS011;19522;45.656;11.302;2023-03-20T03:46:02;37.42;;;27.70;;
33160;SDS011;19522;45.656;11.302;2023-03-20T03:48:34;41.53;;;29.42;;
33160;SDS011;19522;45.656;11.302;2023-03-20T03:51:08;40.22;;;29.92;;
33160;SDS011;19522;45.656;11.302;2023-03-20T03:54:15;41.60;;;30.30;;
33160;SDS011;19522;45.656;11.302;2023-03-20T03:56:45;40.38;;;29.02;;
33160;SDS011;19522;45.656;11.302;2023-03-20T03:59:23;39.85;;;30.33;;
33160;SDS011;19522;45.656;11.302;2023-03-20T04:01:54;38.90;;;29.65;;
33160;SDS011;19522;45.656;11.302;2023-03-20T04:04:21;42.22;;;30.40;;
33160;SDS011;19522;45.656;11.302;2023-03-20T04:06:47;40.92;;;31.05;;
33160;SDS011;19522;45.656;11.302;2023-03-20T04:09:13;42.65;;;31.30;;
33160;SDS011;19522;45.656;11.302;2023-03-20T04:11:38;41.08;;;29.17;;
33160;SDS011;19522;45.656;11.302;2023-03-20T04:14:04;41.92;;;30.25;;
33160;SDS011;19522;45.656;11.302;2023-03-20T04:16:29;43.45;;;31.38;;
33160;SDS011;19522;45.656;11.302;2023-03-20T04:18:55;40.28;;;28.77;;
33160;SDS011;19522;45.656;11.302;2023-03-20T04:21:21;39.03;;;28.25;;
33160;SDS011;19522;45.656;11.302;2023-03-20T04:23:46;43.50;;;30.38;;
33160;SDS011;19522;45.656;11.302;2023-03-20T04:26:12;43.00;;;31.08;;
33160;SDS011;19522;45.656;11.302;2023-03-20T04:28:38;41.42;;;31.15;;
33160;SDS011;19522;45.656;11.302;2023-03-20T04:31:04;42.47;;;31.13;;
33160;SDS011;19522;45.656;11.302;2023-03-20T04:33:30;39.10;;;29.35;;
33160;SDS011;19522;45.656;11.302;2023-03-20T04:35:55;42.85;;;32.63;;
33160;SDS011;19522;45.656;11.302;2023-03-20T04:38:21;42.97;;;30.75;;
33160;SDS011;19522;45.656;11.302;2023-03-20T04:40:47;42.03;;;30.08;;
33160;SDS011;19522;45.656;11.302;2023-03-20T04:43:13;44.30;;;30.48;;
33160;SDS011;19522;45.656;11.302;2023-03-20T04:45:39;42.40;;;30.45;;
33160;SDS011;19522;45.656;11.302;2023-03-20T04:48:05;42.63;;;29.88;;
33160;SDS011;19522;45.656;11.302;2023-03-20T04:50:31;41.83;;;29.10;;
33160;SDS011;19522;45.656;11.302;2023-03-20T04:52:57;38.28;;;29.10;;
33160;SDS011;19522;45.656;11.302;2023-03-20T04:55:22;40.20;;;28.48;;
33160;SDS011;19522;45.656;11.302;2023-03-20T04:57:48;44.72;;;30.70;;
33160;SDS011;19522;45.656;11.302;2023-03-20T05:00:14;39.95;;;30.83;;
33160;SDS011;19522;45.656;11.302;2023-03-20T05:02:41;38.28;;;28.55;;
33160;SDS011;19522;45.656;11.302;2023-03-20T05:05:07;42.78;;;29.38;;
33160;SDS011;19522;45.656;11.302;2023-03-20T05:07:33;39.72;;;28.48;;
33160;SDS011;19522;45.656;11.302;2023-03-20T05:09:59;44.50;;;31.63;;
33160;SDS011;19522;45.656;11.302;2023-03-20T05:12:25;38.35;;;28.45;;
33160;SDS011;19522;45.656;11.302;2023-03-20T05:14:51;38.30;;;28.13;;
33160;SDS011;19522;45.656;11.302;2023-03-20T05:17:19;44.15;;;31.25;;
33160;SDS011;19522;45.656;11.302;2023-03-20T05:19:45;42.53;;;30.55;;
33160;SDS011;19522;45.656;11.302;2023-03-20T05:22:11;44.47;;;31.17;;
33160;SDS011;19522;45.656;11.302;2023-03-20T05:24:37;41.97;;;29.92;;
33160;SDS011;19522;45.656;11.302;2023-03-20T05:27:03;38.85;;;28.90;;
33160;SDS011;19522;45.656;11.302;2023-03-20T05:29:29;44.17;;;30.15;;
33160;SDS011;19522;45.656;11.302;2023-03-20T05:31:54;42.78;;;30.98;;
33160;SDS011;19522;45.656;11.302;2023-03-20T05:34:20;41.13;;;30.30;;
33160;SDS011;19522;45.656;11.302;2023-03-20T05:36:46;41.25;;;29.77;;
33160;SDS011;19522;45.656;11.302;2023-03-20T05:39:11;40.60;;;30.27;;
33160;SDS011;19522;45.656;11.302;2023-03-20T05:41:37;43.22;;;29.25;;
33160;SDS011;19522;45.656;11.302;2023-03-20T05:44:03;37.55;;;29.45;;
33160;SDS011;19522;45.656;11.302;2023-03-20T05:46:28;44.65;;;30.90;;
33160;SDS011;19522;45.656;11.302;2023-03-20T05:48:54;39.80;;;29.25;;
33160;SDS011;19522;45.656;11.302;2023-03-20T05:51:20;42.08;;;29.77;;
33160;SDS011;19522;45.656;11.302;2023-03-20T05:53:45;44.20;;;30.77;;
33160;SDS011;19522;45.656;11.302;2023-03-20T05:56:11;39.97;;;29.95;;
33160;SDS011;19522;45.656;11.302;2023-03-20T05:58:36;43.63;;;31.55;;
33160;SDS011;19522;45.656;11.302;2023-03-20T06:01:02;41.78;;;30.23;;
33160;SDS011;19522;45.656;11.302;2023-03-20T06:03:28;40.00;;;29.60;;
33160;SDS011;19522;45.656;11.302;2023-03-20T06:05:53;40.95;;;29.05;;
33160;SDS011;19522;45.656;11.302;2023-03-20T06:08:19;37.47;;;27.88;;
33160;SDS011;19522;45.656;11.302;2023-03-20T06:10:45;43.50;;;30.55;;
33160;SDS011;19522;45.656;11.302;2023-03-20T06:13:10;39.63;;;29.02;;
33160;SDS011;19522;45.656;11.302;2023-03-20T06:15:36;41.00;;;29.20;;
33160;SDS011;19522;45.656;11.302;2023-03-20T06:18:01;41.38;;;30.02;;
33160;SDS011;19522;45.656;11.302;2023-03-20T06:20:27;42.05;;;28.98;;
33160;SDS011;19522;45.656;11.302;2023-03-20T06:22:53;42.00;;;31.15;;
33160;SDS011;19522;45.656;11.302;2023-03-20T06:25:18;51.53;;;33.08;;
33160;SDS011;19522;45.656;11.302;2023-03-20T06:27:45;51.00;;;33.85;;
33160;SDS011;19522;45.656;11.302;2023-03-20T06:30:12;46.42;;;31.92;;
33160;SDS011;19522;45.656;11.302;2023-03-20T06:32:39;45.22;;;31.20;;
33160;SDS011;19522;45.656;11.302;2023-03-20T06:35:05;44.35;;;32.03;;
33160;SDS011;19522;45.656;11.302;2023-03-20T06:37:31;46.33;;;29.48;;
33160;SDS011;19522;45.656;11.302;2023-03-20T06:39:57;41.92;;;29.55;;
33160;SDS011;19522;45.656;11.302;2023-03-20T06:42:23;46.42;;;29.42;;
33160;SDS011;19522;45.656;11.302;2023-03-20T06:44:49;41.75;;;27.27;;
33160;SDS011;19522;45.656;11.302;2023-03-20T06:47:14;39.67;;;26.95;;
33160;SDS011;19522;45.656;11.302;2023-03-20T06:49:40;38.45;;;27.48;;
33160;SDS011;19522;45.656;11.302;2023-03-20T06:52:06;38.08;;;26.38;;
33160;SDS011;19522;45.656;11.302;2023-03-20T06:54:33;36.70;;;26.67;;
33160;SDS011;19522;45.656;11.302;2023-03-20T06:56:59;37.88;;;27.77;;
33160;SDS011;19522;45.656;11.302;2023-03-20T06:59:24;40.80;;;29.52;;
33160;SDS011;19522;45.656;11.302;2023-03-20T07:01:51;40.63;;;29.42;;
33160;SDS011;19522;45.656;11.302;2023-03-20T07:04:16;39.05;;;29.13;;
33160;SDS011;19522;45.656;11.302;2023-03-20T07:06:42;41.63;;;29.58;;
33160;SDS011;19522;45.656;11.302;2023-03-20T07:09:08;41.75;;;31.02;;
33160;SDS011;19522;45.656;11.302;2023-03-20T07:11:33;42.40;;;29.20;;
33160;SDS011;19522;45.656;11.302;2023-03-20T07:13:59;41.53;;;29.67;;
33160;SDS011;19522;45.656;11.302;2023-03-20T07:16:25;41.03;;;29.38;;
33160;SDS011;19522;45.656;11.302;2023-03-20T07:18:51;41.15;;;28.38;;
33160;SDS011;19522;45.656;11.302;2023-03-20T07:21:19;40.90;;;28.88;;
33160;SDS011;19522;45.656;11.302;2023-03-20T07:23:47;43.40;;;30.52;;
33160;SDS011;19522;45.656;11.302;2023-03-20T07:26:12;41.83;;;30.98;;
33160;SDS011;19522;45.656;11.302;2023-03-20T07:28:38;40.13;;;28.90;;
33160;SDS011;19522;45.656;11.302;2023-03-20T07:31:04;41.40;;;30.10;;
33160;SDS011;19522;45.656;11.302;2023-03-20T07:33:30;41.25;;;29.92;;
33160;SDS011;19522;45.656;11.302;2023-03-20T07:35:56;42.70;;;30.20;;
33160;SDS011;19522;45.656;11.302;2023-03-20T07:38:21;44.20;;;31.88;;
33160;SDS011;19522;45.656;11.302;2023-03-20T07:40:48;39.40;;;28.70;;
33160;SDS011;19522;45.656;11.302;2023-03-20T07:43:14;41.35;;;28.95;;
33160;SDS011;19522;45.656;11.302;2023-03-20T07:45:41;40.55;;;30.05;;
33160;SDS011;19522;45.656;11.302;2023-03-20T07:48:06;49.28;;;35.08;;
33160;SDS011;19522;45.656;11.302;2023-03-20T07:50:32;48.40;;;33.28;;
33160;SDS011;19522;45.656;11.302;2023-03-20T07:52:57;43.30;;;32.33;;
33160;SDS011;19522;45.656;11.302;2023-03-20T07:55:23;42.80;;;31.90;;
33160;SDS011;19522;45.656;11.302;2023-03-20T07:57:49;43.28;;;32.55;;
33160;SDS011;19522;45.656;11.302;2023-03-20T08:00:15;45.45;;;30.92;;
33160;SDS011;19522;45.656;11.302;2023-03-20T08:02:41;38.53;;;30.40;;
33160;SDS011;19522;45.656;11.302;2023-03-20T08:05:07;43.13;;;31.02;;
33160;SDS011;19522;45.656;11.302;2023-03-20T08:07:33;36.92;;;28.63;;
33160;SDS011;19522;45.656;11.302;2023-03-20T08:10:00;38.20;;;29.35;;
33160;SDS011;19522;45.656;11.302;2023-03-20T08:12:26;38.83;;;29.13;;
33160;SDS011;19522;45.656;11.302;2023-03-20T08:14:51;33.85;;;27.27;;
33160;SDS011;19522;45.656;11.302;2023-03-20T08:17:17;38.83;;;27.60;;
33160;SDS011;19522;45.656;11.302;2023-03-20T08:19:43;40.15;;;29.15;;
33160;SDS011;19522;45.656;11.302;2023-03-20T08:22:09;38.90;;;28.05;;
33160;SDS011;19522;45.656;11.302;2023-03-20T08:24:34;40.85;;;29.67;;
33160;SDS011;19522;45.656;11.302;2023-03-20T08:27:00;39.42;;;29.48;;
33160;SDS011;19522;45.656;11.302;2023-03-20T08:29:26;44.08;;;30.00;;
33160;SDS011;19522;45.656;11.302;2023-03-20T08:31:51;45.28;;;30.02;;
33160;SDS011;19522;45.656;11.302;2023-03-20T08:34:17;38.42;;;28.95;;
33160;SDS011;19522;45.656;11.302;2023-03-20T08:36:42;36.78;;;28.08;;
33160;SDS011;19522;45.656;11.302;2023-03-20T08:39:08;40.67;;;28.02;;
33160;SDS011;19522;45.656;11.302;2023-03-20T08:41:37;35.55;;;26.40;;
33160;SDS011;19522;45.656;11.302;2023-03-20T08:44:04;35.80;;;26.27;;
33160;SDS011;19522;45.656;11.302;2023-03-20T08:46:30;33.92;;;25.63;;
33160;SDS011;19522;45.656;11.302;2023-03-20T08:48:56;39.03;;;26.65;;
33160;SDS011;19522;45.656;11.302;2023-03-20T08:51:23;35.70;;;25.75;;
33160;SDS011;19522;45.656;11.302;2023-03-20T08:53:49;34.90;;;25.25;;
33160;SDS011;19522;45.656;11.302;2023-03-20T08:56:15;35.70;;;25.10;;
33160;SDS011;19522;45.656;11.302;2023-03-20T08:58:40;36.78;;;25.25;;
33160;SDS011;19522;45.656;11.302;2023-03-20T09:01:06;33.90;;;25.10;;
33160;SDS011;19522;45.656;11.302;2023-03-20T09:03:33;35.30;;;24.45;;
33160;SDS011;19522;45.656;11.302;2023-03-20T09:05:59;39.30;;;25.67;;
33160;SDS011;19522;45.656;11.302;2023-03-20T09:08:25;34.65;;;25.48;;
33160;SDS011;19522;45.656;11.302;2023-03-20T09:10:51;33.95;;;26.27;;
33160;SDS011;19522;45.656;11.302;2023-03-20T09:13:16;35.03;;;24.25;;
33160;SDS011;19522;45.656;11.302;2023-03-20T09:15:42;32.90;;;24.38;;
33160;SDS011;19522;45.656;11.302;2023-03-20T09:18:07;33.53;;;23.85;;
33160;SDS011;19522;45.656;11.302;2023-03-20T09:20:33;36.28;;;25.10;;
33160;SDS011;19522;45.656;11.302;2023-03-20T09:22:59;38.13;;;24.75;;
33160;SDS011;19522;45.656;11.302;2023-03-20T09:25:24;35.70;;;24.90;;
33160;SDS011;19522;45.656;11.302;2023-03-20T09:27:51;35.67;;;25.95;;
33160;SDS011;19522;45.656;11.302;2023-03-20T09:30:19;32.25;;;24.67;;
33160;SDS011;19522;45.656;11.302;2023-03-20T09:32:47;34.45;;;24.95;;
33160;SDS011;19522;45.656;11.302;2023-03-20T09:35:13;30.88;;;23.90;;
33160;SDS011;19522;45.656;11.302;2023-03-20T09:37:38;32.72;;;24.77;;
33160;SDS011;19522;45.656;11.302;2023-03-20T09:40:04;31.88;;;24.10;;
33160;SDS011;19522;45.656;11.302;2023-03-20T09:42:36;32.08;;;23.27;;
33160;SDS011;19522;45.656;11.302;2023-03-20T09:45:48;28.83;;;21.40;;
33160;SDS011;19522;45.656;11.302;2023-03-20T09:48:24;24.97;;;19.03;;
33160;SDS011;19522;45.656;11.302;2023-03-20T09:51:04;30.42;;;20.00;;
33160;SDS011;19522;45.656;11.302;2023-03-20T09:53:43;27.05;;;20.10;;
33160;SDS011;19522;45.656;11.302;2023-03-20T09:56:15;26.67;;;18.25;;
33160;SDS011;19522;45.656;11.302;2023-03-20T09:58:43;23.13;;;17.08;;
33160;SDS011;19522;45.656;11.302;2023-03-20T10:01:23;23.88;;;16.98;;
33160;SDS011;19522;45.656;11.302;2023-03-20T10:04:02;26.60;;;19.20;;
33160;SDS011;19522;45.656;11.302;2023-03-20T10:06:32;25.83;;;18.50;;
33160;SDS011;19522;45.656;11.302;2023-03-20T10:08:59;25.38;;;18.80;;
33160;SDS011;19522;45.656;11.302;2023-03-20T10:41:43;24.45;;;18.00;;
33160;SDS011;19522;45.656;11.302;2023-03-20T10:44:18;26.45;;;18.65;;
33160;SDS011;19522;45.656;11.302;2023-03-20T10:46:54;29.25;;;18.30;;
33160;SDS011;19522;45.656;11.302;2023-03-20T10:52:03;26.42;;;18.52;;
33160;SDS011;19522;45.656;11.302;2023-03-20T10:54:39;27.95;;;19.25;;
33160;SDS011;19522;45.656;11.302;2023-03-20T10:57:21;27.40;;;18.95;;
33160;SDS011;19522;45.656;11.302;2023-03-20T10:59:49;26.60;;;19.40;;
33160;SDS011;19522;45.656;11.302;2023-03-20T11:02:16;25.98;;;19.77;;
33160;SDS011;19522;45.656;11.302;2023-03-20T11:04:44;26.80;;;19.83;;
33160;SDS011;19522;45.656;11.302;2023-03-20T11:09:36;28.20;;;20.27;;
33160;SDS011;19522;45.656;11.302;2023-03-20T11:12:03;27.88;;;20.52;;
33160;SDS011;19522;45.656;11.302;2023-03-20T11:14:33;25.63;;;19.92;;
33160;SDS011;19522;45.656;11.302;2023-03-20T11:17:02;31.55;;;21.40;;
33160;SDS011;19522;45.656;11.302;2023-03-20T11:19:33;32.65;;;22.65;;
33160;SDS011;19522;45.656;11.302;2023-03-20T11:22:06;26.17;;;20.63;;
33160;SDS011;19522;45.656;11.302;2023-03-20T11:24:50;28.30;;;20.48;;
33160;SDS011;19522;45.656;11.302;2023-03-20T11:27:18;28.42;;;19.65;;
33160;SDS011;19522;45.656;11.302;2023-03-20T11:29:52;29.17;;;19.48;;
33160;SDS011;19522;45.656;11.302;2023-03-20T11:34:54;26.42;;;18.95;;
33160;SDS011;19522;45.656;11.302;2023-03-20T11:39:57;28.50;;;19.05;;
33160;SDS011;19522;45.656;11.302;2023-03-20T11:42:26;28.20;;;19.63;;
33160;SDS011;19522;45.656;11.302;2023-03-20T11:44:57;27.10;;;19.10;;
33160;SDS011;19522;45.656;11.302;2023-03-20T11:47:47;24.70;;;17.42;;
33160;SDS011;19522;45.656;11.302;2023-03-20T11:50:35;25.27;;;18.23;;
33160;SDS011;19522;45.656;11.302;2023-03-20T11:53:02;24.35;;;18.30;;
33160;SDS011;19522;45.656;11.302;2023-03-20T11:55:42;26.42;;;17.58;;
33160;SDS011;19522;45.656;11.302;2023-03-20T11:58:22;27.13;;;19.33;;
33160;SDS011;19522;45.656;11.302;2023-03-20T12:00:49;27.67;;;19.30;;
33160;SDS011;19522;45.656;11.302;2023-03-20T12:06:18;26.10;;;19.88;;
33160;SDS011;19522;45.656;11.302;2023-03-20T12:08:50;26.35;;;19.38;;
33160;SDS011;19522;45.656;11.302;2023-03-20T12:11:23;27.73;;;21.10;;
33160;SDS011;19522;45.656;11.302;2023-03-20T12:14:00;28.95;;;20.38;;
33160;SDS011;19522;45.656;11.302;2023-03-20T12:16:30;28.30;;;20.73;;
33160;SDS011;19522;45.656;11.302;2023-03-20T12:19:00;29.63;;;22.38;;
33160;SDS011;19522;45.656;11.302;2023-03-20T12:21:41;26.88;;;20.90;;
33160;SDS011;19522;45.656;11.302;2023-03-20T12:26:35;27.45;;;21.23;;
33160;SDS011;19522;45.656;11.302;2023-03-20T12:32:04;31.35;;;21.10;;
33160;SDS011;19522;45.656;11.302;2023-03-20T12:37:11;27.30;;;20.42;;
33160;SDS011;19522;45.656;11.302;2023-03-20T12:39:38;28.60;;;20.05;;
33160;SDS011;19522;45.656;11.302;2023-03-20T12:45:18;30.42;;;19.92;;
33160;SDS011;19522;45.656;11.302;2023-03-20T12:50:41;29.30;;;20.10;;
33160;SDS011;19522;45.656;11.302;2023-03-20T12:56:20;28.25;;;20.65;;
33160;SDS011;19522;45.656;11.302;2023-03-20T13:01:33;26.77;;;21.17;;
33160;SDS011;19522;45.656;11.302;2023-03-20T13:13:05;30.08;;;21.52;;
33160;SDS011;19522;45.656;11.302;2023-03-20T13:15:55;30.58;;;22.55;;
33160;SDS011;19522;45.656;11.302;2023-03-20T13:21:26;32.13;;;23.25;;
33160;SDS011;19522;45.656;11.302;2023-03-20T13:35:03;33.10;;;24.38;;
33160;SDS011;19522;45.656;11.302;2023-03-20T13:37:43;32.20;;;23.60;;
33160;SDS011;19522;45.656;11.302;2023-03-20T13:40:22;33.67;;;24.75;;
33160;SDS011;19522;45.656;11.302;2023-03-20T13:45:37;29.52;;;22.38;;
33160;SDS011;19522;45.656;11.302;2023-03-20T13:48:23;32.67;;;23.48;;
33160;SDS011;19522;45.656;11.302;2023-03-20T13:59:39;34.95;;;23.88;;
33160;SDS011;19522;45.656;11.302;2023-03-20T14:04:46;34.67;;;23.98;;
33160;SDS011;19522;45.656;11.302;2023-03-20T14:15:31;32.53;;;23.77;;
33160;SDS011;19522;45.656;11.302;2023-03-20T14:18:03;30.88;;;23.08;;
33160;SDS011;19522;45.656;11.302;2023-03-20T14:20:34;30.08;;;22.77;;
33160;SDS011;19522;45.656;11.302;2023-03-20T14:23:03;32.25;;;23.33;;
33160;SDS011;19522;45.656;11.302;2023-03-20T14:25:33;28.67;;;22.25;;
33160;SDS011;19522;45.656;11.302;2023-03-20T14:30:49;29.42;;;21.95;;
33160;SDS011;19522;45.656;11.302;2023-03-20T14:35:50;31.90;;;22.90;;
33160;SDS011;19522;45.656;11.302;2023-03-20T14:41:25;29.20;;;20.92;;
33160;SDS011;19522;45.656;11.302;2023-03-20T14:44:19;32.33;;;21.92;;
33160;SDS011;19522;45.656;11.302;2023-03-20T14:57:50;26.75;;;19.92;;
33160;SDS011;19522;45.656;11.302;2023-03-20T15:00:17;28.58;;;20.48;;
33160;SDS011;19522;45.656;11.302;2023-03-20T15:02:47;27.08;;;20.48;;
33160;SDS011;19522;45.656;11.302;2023-03-20T15:05:32;31.50;;;20.55;;
33160;SDS011;19522;45.656;11.302;2023-03-20T15:08:07;25.10;;;19.67;;
33160;SDS011;19522;45.656;11.302;2023-03-20T15:10:50;27.63;;;20.35;;
33160;SDS011;19522;45.656;11.302;2023-03-20T15:13:20;25.13;;;19.40;;
33160;SDS011;19522;45.656;11.302;2023-03-20T15:15:55;28.40;;;20.90;;
33160;SDS011;19522;45.656;11.302;2023-03-20T15:18:23;28.27;;;20.02;;
33160;SDS011;19522;45.656;11.302;2023-03-20T15:20:51;28.20;;;20.40;;
33160;SDS011;19522;45.656;11.302;2023-03-20T15:23:19;29.67;;;20.77;;
33160;SDS011;19522;45.656;11.302;2023-03-20T15:25:45;27.83;;;21.17;;
33160;SDS011;19522;45.656;11.302;2023-03-20T15:28:13;29.33;;;21.08;;
33160;SDS011;19522;45.656;11.302;2023-03-20T15:30:43;27.70;;;20.55;;
33160;SDS011;19522;45.656;11.302;2023-03-20T15:33:44;26.27;;;20.02;;
33160;SDS011;19522;45.656;11.302;2023-03-20T15:36:09;26.83;;;19.83;;
33160;SDS011;19522;45.656;11.302;2023-03-20T15:41:06;28.88;;;18.70;;
33160;SDS011;19522;45.656;11.302;2023-03-20T15:43:32;26.83;;;18.55;;
33160;SDS011;19522;45.656;11.302;2023-03-20T15:46:03;28.25;;;18.70;;
33160;SDS011;19522;45.656;11.302;2023-03-20T15:48:29;25.17;;;18.77;;
33160;SDS011;19522;45.656;11.302;2023-03-20T15:50:56;25.90;;;19.50;;
33160;SDS011;19522;45.656;11.302;2023-03-20T15:56:09;27.58;;;20.17;;
33160;SDS011;19522;45.656;11.302;2023-03-20T15:58:37;29.33;;;19.00;;
33160;SDS011;19522;45.656;11.302;2023-03-20T16:01:04;27.70;;;18.63;;
33160;SDS011;19522;45.656;11.302;2023-03-20T16:03:32;24.83;;;17.83;;
33160;SDS011;19522;45.656;11.302;2023-03-20T16:06:02;23.67;;;17.30;;
33160;SDS011;19522;45.656;11.302;2023-03-20T16:08:33;24.00;;;17.02;;
33160;SDS011;19522;45.656;11.302;2023-03-20T16:11:00;23.20;;;17.55;;
33160;SDS011;19522;45.656;11.302;2023-03-20T16:13:38;28.73;;;17.55;;
33160;SDS011;19522;45.656;11.302;2023-03-20T16:18:35;26.80;;;16.67;;
33160;SDS011;19522;45.656;11.302;2023-03-20T16:21:08;26.70;;;17.27;;
33160;SDS011;19522;45.656;11.302;2023-03-20T16:23:41;25.48;;;17.75;;
33160;SDS011;19522;45.656;11.302;2023-03-20T16:26:13;23.25;;;17.42;;
33160;SDS011;19522;45.656;11.302;2023-03-20T16:28:44;24.88;;;17.58;;
33160;SDS011;19522;45.656;11.302;2023-03-20T16:34:03;22.88;;;16.55;;
33160;SDS011;19522;45.656;11.302;2023-03-20T16:36:32;23.08;;;17.42;;
33160;SDS011;19522;45.656;11.302;2023-03-20T16:39:15;26.08;;;17.95;;
33160;SDS011;19522;45.656;11.302;2023-03-20T16:41:44;26.08;;;18.02;;
33160;SDS011;19522;45.656;11.302;2023-03-20T16:44:17;22.83;;;18.08;;
33160;SDS011;19522;45.656;11.302;2023-03-20T16:46:59;22.92;;;16.45;;
33160;SDS011;19522;45.656;11.302;2023-03-20T16:51:59;25.58;;;18.58;;
33160;SDS011;19522;45.656;11.302;2023-03-20T16:54:29;25.08;;;18.20;;
33160;SDS011;19522;45.656;11.302;2023-03-20T16:56:58;24.10;;;17.52;;
33160;SDS011;19522;45.656;11.302;2023-03-20T16:59:24;25.30;;;18.30;;
33160;SDS011;19522;45.656;11.302;2023-03-20T17:01:50;24.80;;;17.42;;
33160;SDS011;19522;45.656;11.302;2023-03-20T17:04:22;27.13;;;17.58;;
33160;SDS011;19522;45.656;11.302;2023-03-20T17:07:00;23.65;;;17.02;;
33160;SDS011;19522;45.656;11.302;2023-03-20T17:09:31;25.02;;;17.52;;
33160;SDS011;19522;45.656;11.302;2023-03-20T17:12:01;23.65;;;18.13;;
33160;SDS011;19522;45.656;11.302;2023-03-20T17:14:30;23.52;;;17.70;;
33160;SDS011;19522;45.656;11.302;2023-03-20T17:16:57;23.85;;;17.50;;
33160;SDS011;19522;45.656;11.302;2023-03-20T17:19:24;24.42;;;19.58;;
33160;SDS011;19522;45.656;11.302;2023-03-20T17:21:49;26.05;;;17.60;;